sensor_id;sensor_type;location;lat;lon;timestamp;P1;durP1;ratioP1;P2;durP2;ratioP2
18610;SDS011;9435;52.122;5.502;2022-07-29T00:01:48;4.32;;;1.42;;
18610;SDS011;9435;52.122;5.502;2022-07-29T00:04:17;2.50;;;1.40;;
18610;SDS011;9435;52.122;5.502;2022-07-29T00:06:44;4.55;;;1.70;;
18610;SDS011;9435;52.122;5.502;2022-07-29T00:09:11;3.50;;;1.50;;
18610;SDS011;9435;52.122;5.502;2022-07-29T00:11:39;3.97;;;1.48;;
18610;SDS011;9435;52.122;5.502;2022-07-29T00:14:06;3.42;;;1.42;;
18610;SDS011;9435;52.122;5.502;2022-07-29T00:16:34;5.18;;;1.88;;
18610;SDS011;9435;52.122;5.502;2022-07-29T00:19:01;5.32;;;1.50;;
18610;SDS011;9435;52.122;5.502;2022-07-29T00:21:29;3.28;;;1.67;;
18610;SDS011;9435;52.122;5.502;2022-07-29T00:23:56;4.68;;;1.75;;
18610;SDS011;9435;52.122;5.502;2022-07-29T00:26:23;4.53;;;1.75;;
18610;SDS011;9435;52.122;5.502;2022-07-29T00:28:51;4.45;;;1.50;;
18610;SDS011;9435;52.122;5.502;2022-07-29T00:31:18;3.70;;;1.63;;
18610;SDS011;9435;52.122;5.502;2022-07-29T00:33:45;3.72;;;1.60;;
18610;SDS011;9435;52.122;5.502;2022-07-29T00:36:12;3.80;;;1.85;;
18610;SDS011;9435;52.122;5.502;2022-07-29T00:38:38;3.10;;;1.50;;
18610;SDS011;9435;52.122;5.502;2022-07-29T00:41:09;3.00;;;1.75;;
18610;SDS011;9435;52.122;5.502;2022-07-29T00:43:36;3.28;;;1.80;;
18610;SDS011;9435;52.122;5.502;2022-07-29T00:46:05;2.97;;;1.50;;
18610;SDS011;9435;52.122;5.502;2022-07-29T00:48:32;5.15;;;1.85;;
18610;SDS011;9435;52.122;5.502;2022-07-29T00:50:59;3.58;;;1.60;;
18610;SDS011;9435;52.122;5.502;2022-07-29T00:53:27;6.65;;;1.67;;
18610;SDS011;9435;52.122;5.502;2022-07-29T00:55:56;4.60;;;1.60;;
18610;SDS011;9435;52.122;5.502;2022-07-29T00:58:24;5.18;;;1.77;;
18610;SDS011;9435;52.122;5.502;2022-07-29T01:00:52;4.38;;;1.63;;
18610;SDS011;9435;52.122;5.502;2022-07-29T01:03:21;7.35;;;2.10;;
18610;SDS011;9435;52.122;5.502;2022-07-29T01:05:48;3.88;;;1.80;;
18610;SDS011;9435;52.122;5.502;2022-07-29T01:08:15;5.25;;;1.90;;
18610;SDS011;9435;52.122;5.502;2022-07-29T01:10:43;6.55;;;1.65;;
18610;SDS011;9435;52.122;5.502;2022-07-29T01:13:11;5.60;;;1.88;;
18610;SDS011;9435;52.122;5.502;2022-07-29T01:15:40;7.68;;;1.83;;
18610;SDS011;9435;52.122;5.502;2022-07-29T01:18:11;3.85;;;2.00;;
18610;SDS011;9435;52.122;5.502;2022-07-29T01:20:49;4.85;;;1.92;;
18610;SDS011;9435;52.122;5.502;2022-07-29T01:23:40;7.60;;;2.10;;
18610;SDS011;9435;52.122;5.502;2022-07-29T01:26:28;5.68;;;1.90;;
18610;SDS011;9435;52.122;5.502;2022-07-29T01:29:03;4.10;;;1.80;;
18610;SDS011;9435;52.122;5.502;2022-07-29T01:31:39;3.88;;;1.70;;
18610;SDS011;9435;52.122;5.502;2022-07-29T01:34:11;3.22;;;1.73;;
18610;SDS011;9435;52.122;5.502;2022-07-29T01:36:45;3.63;;;1.88;;
18610;SDS011;9435;52.122;5.502;2022-07-29T01:39:17;5.47;;;2.00;;
18610;SDS011;9435;52.122;5.502;2022-07-29T01:41:48;4.05;;;1.90;;
18610;SDS011;9435;52.122;5.502;2022-07-29T01:44:22;3.42;;;1.90;;
18610;SDS011;9435;52.122;5.502;2022-07-29T01:46:57;5.97;;;2.30;;
18610;SDS011;9435;52.122;5.502;2022-07-29T01:49:28;5.22;;;1.80;;
18610;SDS011;9435;52.122;5.502;2022-07-29T01:52:00;6.15;;;2.13;;
18610;SDS011;9435;52.122;5.502;2022-07-29T01:54:32;6.63;;;2.33;;
18610;SDS011;9435;52.122;5.502;2022-07-29T01:57:03;3.58;;;2.10;;
18610;SDS011;9435;52.122;5.502;2022-07-29T01:59:34;5.55;;;2.30;;
18610;SDS011;9435;52.122;5.502;2022-07-29T02:02:03;4.78;;;2.00;;
18610;SDS011;9435;52.122;5.502;2022-07-29T02:04:33;4.50;;;2.10;;
18610;SDS011;9435;52.122;5.502;2022-07-29T02:07:04;5.78;;;2.20;;
18610;SDS011;9435;52.122;5.502;2022-07-29T02:09:34;6.40;;;2.40;;
18610;SDS011;9435;52.122;5.502;2022-07-29T02:12:03;4.25;;;2.38;;
18610;SDS011;9435;52.122;5.502;2022-07-29T02:14:33;4.78;;;2.65;;
18610;SDS011;9435;52.122;5.502;2022-07-29T02:17:03;4.95;;;2.35;;
18610;SDS011;9435;52.122;5.502;2022-07-29T02:19:31;3.90;;;2.05;;
18610;SDS011;9435;52.122;5.502;2022-07-29T02:22:00;10.00;;;2.70;;
18610;SDS011;9435;52.122;5.502;2022-07-29T02:24:27;5.20;;;2.38;;
18610;SDS011;9435;52.122;5.502;2022-07-29T02:26:56;4.85;;;2.35;;
18610;SDS011;9435;52.122;5.502;2022-07-29T02:29:25;6.38;;;2.60;;
18610;SDS011;9435;52.122;5.502;2022-07-29T02:31:55;4.00;;;2.50;;
18610;SDS011;9435;52.122;5.502;2022-07-29T02:34:24;5.32;;;2.60;;
18610;SDS011;9435;52.122;5.502;2022-07-29T02:36:51;5.25;;;2.90;;
18610;SDS011;9435;52.122;5.502;2022-07-29T02:39:20;5.75;;;2.50;;
18610;SDS011;9435;52.122;5.502;2022-07-29T02:41:50;6.28;;;2.45;;
18610;SDS011;9435;52.122;5.502;2022-07-29T02:44:19;8.35;;;2.78;;
18610;SDS011;9435;52.122;5.502;2022-07-29T02:46:49;5.97;;;2.85;;
18610;SDS011;9435;52.122;5.502;2022-07-29T02:49:23;4.43;;;2.33;;
18610;SDS011;9435;52.122;5.502;2022-07-29T02:52:00;8.60;;;3.00;;
18610;SDS011;9435;52.122;5.502;2022-07-29T02:54:31;6.93;;;2.58;;
18610;SDS011;9435;52.122;5.502;2022-07-29T02:57:04;8.80;;;2.88;;
18610;SDS011;9435;52.122;5.502;2022-07-29T02:59:36;4.90;;;2.45;;
18610;SDS011;9435;52.122;5.502;2022-07-29T03:02:05;3.88;;;2.38;;
18610;SDS011;9435;52.122;5.502;2022-07-29T03:04:34;4.80;;;2.67;;
18610;SDS011;9435;52.122;5.502;2022-07-29T03:07:03;4.32;;;2.35;;
18610;SDS011;9435;52.122;5.502;2022-07-29T03:09:31;6.18;;;2.60;;
18610;SDS011;9435;52.122;5.502;2022-07-29T03:11:58;4.30;;;2.33;;
18610;SDS011;9435;52.122;5.502;2022-07-29T03:14:27;4.95;;;2.63;;
18610;SDS011;9435;52.122;5.502;2022-07-29T03:16:55;4.47;;;2.88;;
18610;SDS011;9435;52.122;5.502;2022-07-29T03:19:23;6.03;;;2.92;;
18610;SDS011;9435;52.122;5.502;2022-07-29T03:21:52;6.80;;;2.47;;
18610;SDS011;9435;52.122;5.502;2022-07-29T03:24:28;6.97;;;2.38;;
18610;SDS011;9435;52.122;5.502;2022-07-29T03:26:57;4.38;;;2.90;;
18610;SDS011;9435;52.122;5.502;2022-07-29T03:29:24;5.97;;;3.28;;
18610;SDS011;9435;52.122;5.502;2022-07-29T03:31:52;5.50;;;2.50;;
18610;SDS011;9435;52.122;5.502;2022-07-29T03:34:19;4.30;;;2.58;;
18610;SDS011;9435;52.122;5.502;2022-07-29T03:36:46;4.82;;;2.55;;
18610;SDS011;9435;52.122;5.502;2022-07-29T03:39:16;7.10;;;2.63;;
18610;SDS011;9435;52.122;5.502;2022-07-29T03:41:45;4.47;;;2.40;;
18610;SDS011;9435;52.122;5.502;2022-07-29T03:44:16;3.33;;;2.35;;
18610;SDS011;9435;52.122;5.502;2022-07-29T03:46:45;5.68;;;2.58;;
18610;SDS011;9435;52.122;5.502;2022-07-29T03:49:14;5.60;;;2.40;;
18610;SDS011;9435;52.122;5.502;2022-07-29T03:51:43;6.40;;;2.70;;
18610;SDS011;9435;52.122;5.502;2022-07-29T03:54:10;6.32;;;2.60;;
18610;SDS011;9435;52.122;5.502;2022-07-29T03:56:39;4.30;;;2.40;;
18610;SDS011;9435;52.122;5.502;2022-07-29T03:59:11;5.50;;;2.58;;
18610;SDS011;9435;52.122;5.502;2022-07-29T04:01:40;4.68;;;2.45;;
18610;SDS011;9435;52.122;5.502;2022-07-29T04:04:08;6.30;;;2.58;;
18610;SDS011;9435;52.122;5.502;2022-07-29T04:06:39;4.75;;;2.40;;
18610;SDS011;9435;52.122;5.502;2022-07-29T04:09:06;5.13;;;2.40;;
18610;SDS011;9435;52.122;5.502;2022-07-29T04:11:34;4.18;;;2.30;;
18610;SDS011;9435;52.122;5.502;2022-07-29T04:14:04;6.00;;;2.20;;
18610;SDS011;9435;52.122;5.502;2022-07-29T04:16:31;3.03;;;2.10;;
18610;SDS011;9435;52.122;5.502;2022-07-29T04:18:58;4.68;;;2.33;;
18610;SDS011;9435;52.122;5.502;2022-07-29T04:21:25;4.03;;;2.30;;
18610;SDS011;9435;52.122;5.502;2022-07-29T04:23:52;3.03;;;2.00;;
18610;SDS011;9435;52.122;5.502;2022-07-29T04:26:19;5.75;;;2.13;;
18610;SDS011;9435;52.122;5.502;2022-07-29T04:28:46;5.68;;;2.20;;
18610;SDS011;9435;52.122;5.502;2022-07-29T04:31:15;4.35;;;2.25;;
18610;SDS011;9435;52.122;5.502;2022-07-29T04:33:42;4.85;;;2.30;;
18610;SDS011;9435;52.122;5.502;2022-07-29T04:36:09;3.53;;;2.28;;
18610;SDS011;9435;52.122;5.502;2022-07-29T04:38:37;6.50;;;2.40;;
18610;SDS011;9435;52.122;5.502;2022-07-29T04:41:04;8.02;;;2.60;;
18610;SDS011;9435;52.122;5.502;2022-07-29T04:43:33;7.60;;;2.28;;
18610;SDS011;9435;52.122;5.502;2022-07-29T04:46:00;7.10;;;2.45;;
18610;SDS011;9435;52.122;5.502;2022-07-29T04:48:29;5.68;;;2.40;;
18610;SDS011;9435;52.122;5.502;2022-07-29T04:50:56;5.97;;;2.30;;
18610;SDS011;9435;52.122;5.502;2022-07-29T04:53:23;3.60;;;2.30;;
18610;SDS011;9435;52.122;5.502;2022-07-29T04:55:51;4.65;;;2.35;;
18610;SDS011;9435;52.122;5.502;2022-07-29T04:58:18;4.07;;;2.22;;
18610;SDS011;9435;52.122;5.502;2022-07-29T05:00:45;7.53;;;2.60;;
18610;SDS011;9435;52.122;5.502;2022-07-29T05:03:12;4.65;;;2.28;;
18610;SDS011;9435;52.122;5.502;2022-07-29T05:05:40;3.83;;;2.33;;
18610;SDS011;9435;52.122;5.502;2022-07-29T05:08:07;5.05;;;2.50;;
18610;SDS011;9435;52.122;5.502;2022-07-29T05:10:34;3.08;;;2.15;;
18610;SDS011;9435;52.122;5.502;2022-07-29T05:13:03;9.50;;;2.60;;
18610;SDS011;9435;52.122;5.502;2022-07-29T05:15:31;4.93;;;2.38;;
18610;SDS011;9435;52.122;5.502;2022-07-29T05:17:58;5.70;;;2.55;;
18610;SDS011;9435;52.122;5.502;2022-07-29T05:20:25;4.28;;;2.40;;
18610;SDS011;9435;52.122;5.502;2022-07-29T05:22:54;4.90;;;2.20;;
18610;SDS011;9435;52.122;5.502;2022-07-29T05:25:23;5.40;;;2.30;;
18610;SDS011;9435;52.122;5.502;2022-07-29T05:27:50;7.53;;;2.35;;
18610;SDS011;9435;52.122;5.502;2022-07-29T05:30:18;5.75;;;2.25;;
18610;SDS011;9435;52.122;5.502;2022-07-29T05:32:45;3.85;;;2.20;;
18610;SDS011;9435;52.122;5.502;2022-07-29T05:35:13;6.18;;;2.20;;
18610;SDS011;9435;52.122;5.502;2022-07-29T05:37:41;6.25;;;2.20;;
18610;SDS011;9435;52.122;5.502;2022-07-29T05:40:10;5.57;;;2.22;;
18610;SDS011;9435;52.122;5.502;2022-07-29T05:42:37;6.18;;;2.58;;
18610;SDS011;9435;52.122;5.502;2022-07-29T05:45:04;3.17;;;2.15;;
18610;SDS011;9435;52.122;5.502;2022-07-29T05:47:32;6.63;;;2.40;;
18610;SDS011;9435;52.122;5.502;2022-07-29T05:49:59;4.40;;;2.17;;
18610;SDS011;9435;52.122;5.502;2022-07-29T05:52:26;7.65;;;2.55;;
18610;SDS011;9435;52.122;5.502;2022-07-29T05:54:53;4.68;;;2.58;;
18610;SDS011;9435;52.122;5.502;2022-07-29T05:57:23;4.35;;;2.20;;
18610;SDS011;9435;52.122;5.502;2022-07-29T05:59:51;5.05;;;2.65;;
18610;SDS011;9435;52.122;5.502;2022-07-29T06:02:18;3.85;;;2.40;;
18610;SDS011;9435;52.122;5.502;2022-07-29T06:04:45;4.88;;;2.50;;
18610;SDS011;9435;52.122;5.502;2022-07-29T06:07:12;7.22;;;2.75;;
18610;SDS011;9435;52.122;5.502;2022-07-29T06:09:39;7.70;;;2.58;;
18610;SDS011;9435;52.122;5.502;2022-07-29T06:12:06;4.50;;;2.67;;
18610;SDS011;9435;52.122;5.502;2022-07-29T06:14:34;5.18;;;2.78;;
18610;SDS011;9435;52.122;5.502;2022-07-29T06:17:03;7.72;;;2.78;;
18610;SDS011;9435;52.122;5.502;2022-07-29T06:19:30;6.05;;;2.70;;
18610;SDS011;9435;52.122;5.502;2022-07-29T06:21:59;7.10;;;2.60;;
18610;SDS011;9435;52.122;5.502;2022-07-29T06:24:26;7.30;;;2.70;;
18610;SDS011;9435;52.122;5.502;2022-07-29T06:26:54;10.00;;;2.95;;
18610;SDS011;9435;52.122;5.502;2022-07-29T06:29:21;5.80;;;2.53;;
18610;SDS011;9435;52.122;5.502;2022-07-29T06:31:49;7.28;;;2.97;;
18610;SDS011;9435;52.122;5.502;2022-07-29T06:34:16;7.45;;;2.88;;
18610;SDS011;9435;52.122;5.502;2022-07-29T06:36:44;7.57;;;2.80;;
18610;SDS011;9435;52.122;5.502;2022-07-29T06:39:11;6.07;;;3.10;;
18610;SDS011;9435;52.122;5.502;2022-07-29T06:41:38;5.80;;;3.10;;
18610;SDS011;9435;52.122;5.502;2022-07-29T06:44:05;5.80;;;2.97;;
18610;SDS011;9435;52.122;5.502;2022-07-29T06:46:32;7.35;;;2.90;;
18610;SDS011;9435;52.122;5.502;2022-07-29T06:49:00;9.25;;;3.30;;
18610;SDS011;9435;52.122;5.502;2022-07-29T06:51:27;8.57;;;2.90;;
18610;SDS011;9435;52.122;5.502;2022-07-29T06:53:54;6.10;;;2.80;;
18610;SDS011;9435;52.122;5.502;2022-07-29T06:56:22;9.65;;;3.20;;
18610;SDS011;9435;52.122;5.502;2022-07-29T06:58:49;7.75;;;3.15;;
18610;SDS011;9435;52.122;5.502;2022-07-29T07:01:16;7.40;;;3.00;;
18610;SDS011;9435;52.122;5.502;2022-07-29T07:03:43;8.77;;;2.83;;
18610;SDS011;9435;52.122;5.502;2022-07-29T07:06:12;6.60;;;2.95;;
18610;SDS011;9435;52.122;5.502;2022-07-29T07:08:39;7.47;;;2.75;;
18610;SDS011;9435;52.122;5.502;2022-07-29T07:11:06;6.30;;;2.80;;
18610;SDS011;9435;52.122;5.502;2022-07-29T07:13:33;6.45;;;2.80;;
18610;SDS011;9435;52.122;5.502;2022-07-29T07:16:00;4.95;;;2.60;;
18610;SDS011;9435;52.122;5.502;2022-07-29T07:18:27;4.68;;;2.80;;
18610;SDS011;9435;52.122;5.502;2022-07-29T07:20:55;6.30;;;3.03;;
18610;SDS011;9435;52.122;5.502;2022-07-29T07:23:24;5.95;;;2.80;;
18610;SDS011;9435;52.122;5.502;2022-07-29T07:25:51;4.97;;;2.67;;
18610;SDS011;9435;52.122;5.502;2022-07-29T07:28:18;5.25;;;2.70;;
18610;SDS011;9435;52.122;5.502;2022-07-29T07:30:45;7.35;;;2.70;;
18610;SDS011;9435;52.122;5.502;2022-07-29T07:33:12;6.75;;;3.10;;
18610;SDS011;9435;52.122;5.502;2022-07-29T07:35:39;6.13;;;3.00;;
18610;SDS011;9435;52.122;5.502;2022-07-29T07:38:06;6.45;;;3.10;;
18610;SDS011;9435;52.122;5.502;2022-07-29T07:40:35;6.38;;;2.90;;
18610;SDS011;9435;52.122;5.502;2022-07-29T07:43:02;5.78;;;3.10;;
18610;SDS011;9435;52.122;5.502;2022-07-29T07:45:29;4.75;;;3.00;;
18610;SDS011;9435;52.122;5.502;2022-07-29T07:47:57;6.15;;;3.00;;
18610;SDS011;9435;52.122;5.502;2022-07-29T07:50:24;7.05;;;2.97;;
18610;SDS011;9435;52.122;5.502;2022-07-29T07:52:52;5.72;;;2.80;;
18610;SDS011;9435;52.122;5.502;2022-07-29T07:55:22;6.63;;;3.10;;
18610;SDS011;9435;52.122;5.502;2022-07-29T07:57:51;8.85;;;2.92;;
18610;SDS011;9435;52.122;5.502;2022-07-29T08:00:18;6.95;;;2.83;;
18610;SDS011;9435;52.122;5.502;2022-07-29T08:02:46;8.07;;;2.70;;
18610;SDS011;9435;52.122;5.502;2022-07-29T08:05:13;8.80;;;3.03;;
18610;SDS011;9435;52.122;5.502;2022-07-29T08:07:43;7.20;;;2.60;;
18610;SDS011;9435;52.122;5.502;2022-07-29T08:10:11;5.18;;;2.78;;
18610;SDS011;9435;52.122;5.502;2022-07-29T08:12:38;6.65;;;2.58;;
18610;SDS011;9435;52.122;5.502;2022-07-29T08:15:08;7.68;;;2.88;;
18610;SDS011;9435;52.122;5.502;2022-07-29T08:17:35;5.38;;;2.90;;
18610;SDS011;9435;52.122;5.502;2022-07-29T08:20:02;5.35;;;2.40;;
18610;SDS011;9435;52.122;5.502;2022-07-29T08:22:30;5.97;;;2.40;;
18610;SDS011;9435;52.122;5.502;2022-07-29T08:24:57;6.65;;;2.60;;
18610;SDS011;9435;52.122;5.502;2022-07-29T08:27:24;6.03;;;2.90;;
18610;SDS011;9435;52.122;5.502;2022-07-29T08:29:54;4.60;;;2.88;;
18610;SDS011;9435;52.122;5.502;2022-07-29T08:32:23;6.80;;;2.47;;
18610;SDS011;9435;52.122;5.502;2022-07-29T08:34:50;6.53;;;2.58;;
18610;SDS011;9435;52.122;5.502;2022-07-29T08:37:17;6.55;;;2.47;;
18610;SDS011;9435;52.122;5.502;2022-07-29T08:39:44;4.90;;;2.50;;
18610;SDS011;9435;52.122;5.502;2022-07-29T08:42:11;5.85;;;2.60;;
18610;SDS011;9435;52.122;5.502;2022-07-29T08:44:38;5.00;;;2.80;;
18610;SDS011;9435;52.122;5.502;2022-07-29T08:47:05;6.40;;;2.45;;
18610;SDS011;9435;52.122;5.502;2022-07-29T08:49:34;5.45;;;2.45;;
18610;SDS011;9435;52.122;5.502;2022-07-29T08:52:02;5.45;;;2.60;;
18610;SDS011;9435;52.122;5.502;2022-07-29T08:54:29;5.28;;;2.53;;
18610;SDS011;9435;52.122;5.502;2022-07-29T08:56:56;5.03;;;2.47;;
18610;SDS011;9435;52.122;5.502;2022-07-29T08:59:24;4.80;;;2.20;;
18610;SDS011;9435;52.122;5.502;2022-07-29T09:01:53;10.35;;;5.85;;
18610;SDS011;9435;52.122;5.502;2022-07-29T09:04:20;12.55;;;3.33;;
18610;SDS011;9435;52.122;5.502;2022-07-29T09:06:52;5.85;;;3.45;;
18610;SDS011;9435;52.122;5.502;2022-07-29T09:09:23;6.82;;;2.70;;
18610;SDS011;9435;52.122;5.502;2022-07-29T09:11:55;4.70;;;2.50;;
18610;SDS011;9435;52.122;5.502;2022-07-29T09:14:48;5.82;;;2.60;;
18610;SDS011;9435;52.122;5.502;2022-07-29T09:17:15;6.25;;;2.70;;
18610;SDS011;9435;52.122;5.502;2022-07-29T09:19:43;6.47;;;2.15;;
18610;SDS011;9435;52.122;5.502;2022-07-29T09:22:11;4.30;;;2.60;;
18610;SDS011;9435;52.122;5.502;2022-07-29T09:24:40;8.13;;;2.25;;
18610;SDS011;9435;52.122;5.502;2022-07-29T09:27:09;6.82;;;2.40;;
18610;SDS011;9435;52.122;5.502;2022-07-29T09:29:37;6.68;;;2.50;;
18610;SDS011;9435;52.122;5.502;2022-07-29T09:32:06;7.53;;;2.60;;
18610;SDS011;9435;52.122;5.502;2022-07-29T09:34:35;6.72;;;2.78;;
18610;SDS011;9435;52.122;5.502;2022-07-29T09:37:03;5.18;;;2.47;;
18610;SDS011;9435;52.122;5.502;2022-07-29T09:39:32;6.55;;;2.75;;
18610;SDS011;9435;52.122;5.502;2022-07-29T09:42:02;5.22;;;2.60;;
18610;SDS011;9435;52.122;5.502;2022-07-29T09:44:46;4.95;;;2.53;;
18610;SDS011;9435;52.122;5.502;2022-07-29T09:47:15;5.80;;;2.60;;
18610;SDS011;9435;52.122;5.502;2022-07-29T09:49:53;5.18;;;2.70;;
18610;SDS011;9435;52.122;5.502;2022-07-29T09:52:22;7.70;;;2.72;;
18610;SDS011;9435;52.122;5.502;2022-07-29T09:54:51;6.75;;;2.60;;
18610;SDS011;9435;52.122;5.502;2022-07-29T09:57:23;4.40;;;2.72;;
18610;SDS011;9435;52.122;5.502;2022-07-29T09:59:58;8.00;;;3.90;;
18610;SDS011;9435;52.122;5.502;2022-07-29T10:02:29;6.15;;;3.47;;
18610;SDS011;9435;52.122;5.502;2022-07-29T10:04:58;4.60;;;2.80;;
18610;SDS011;9435;52.122;5.502;2022-07-29T10:07:26;9.07;;;3.10;;
18610;SDS011;9435;52.122;5.502;2022-07-29T10:10:09;7.68;;;2.90;;
18610;SDS011;9435;52.122;5.502;2022-07-29T10:12:47;5.55;;;2.83;;
18610;SDS011;9435;52.122;5.502;2022-07-29T10:15:16;6.07;;;3.05;;
18610;SDS011;9435;52.122;5.502;2022-07-29T10:17:44;7.00;;;3.05;;
18610;SDS011;9435;52.122;5.502;2022-07-29T10:20:11;8.70;;;3.90;;
18610;SDS011;9435;52.122;5.502;2022-07-29T10:22:39;4.88;;;2.60;;
18610;SDS011;9435;52.122;5.502;2022-07-29T10:25:07;5.57;;;3.30;;
18610;SDS011;9435;52.122;5.502;2022-07-29T10:27:36;7.95;;;3.10;;
18610;SDS011;9435;52.122;5.502;2022-07-29T10:30:04;6.57;;;3.22;;
18610;SDS011;9435;52.122;5.502;2022-07-29T10:32:34;6.65;;;3.00;;
18610;SDS011;9435;52.122;5.502;2022-07-29T10:35:21;5.03;;;2.45;;
18610;SDS011;9435;52.122;5.502;2022-07-29T10:38:07;5.80;;;2.60;;
18610;SDS011;9435;52.122;5.502;2022-07-29T10:40:51;8.50;;;2.90;;
18610;SDS011;9435;52.122;5.502;2022-07-29T10:43:44;7.88;;;2.85;;
18610;SDS011;9435;52.122;5.502;2022-07-29T10:46:14;6.82;;;2.83;;
18610;SDS011;9435;52.122;5.502;2022-07-29T10:54:43;5.78;;;2.63;;
18610;SDS011;9435;52.122;5.502;2022-07-29T10:57:21;7.75;;;2.80;;
18610;SDS011;9435;52.122;5.502;2022-07-29T11:02:52;6.60;;;2.50;;
18610;SDS011;9435;52.122;5.502;2022-07-29T11:05:21;4.90;;;2.60;;
18610;SDS011;9435;52.122;5.502;2022-07-29T11:10:53;5.25;;;2.80;;
18610;SDS011;9435;52.122;5.502;2022-07-29T11:13:46;8.60;;;3.20;;
18610;SDS011;9435;52.122;5.502;2022-07-29T11:16:16;7.20;;;2.80;;
18610;SDS011;9435;52.122;5.502;2022-07-29T11:21:47;7.80;;;3.10;;
18610;SDS011;9435;52.122;5.502;2022-07-29T11:24:16;4.78;;;2.53;;
18610;SDS011;9435;52.122;5.502;2022-07-29T11:26:46;5.72;;;3.17;;
18610;SDS011;9435;52.122;5.502;2022-07-29T11:29:47;7.68;;;3.17;;
18610;SDS011;9435;52.122;5.502;2022-07-29T11:32:17;6.43;;;3.08;;
18610;SDS011;9435;52.122;5.502;2022-07-29T11:34:45;6.15;;;2.60;;
18610;SDS011;9435;52.122;5.502;2022-07-29T11:37:19;6.60;;;2.78;;
18610;SDS011;9435;52.122;5.502;2022-07-29T11:42:43;8.65;;;3.22;;
18610;SDS011;9435;52.122;5.502;2022-07-29T11:45:14;9.15;;;3.30;;
18610;SDS011;9435;52.122;5.502;2022-07-29T11:47:47;6.35;;;2.88;;
18610;SDS011;9435;52.122;5.502;2022-07-29T11:50:16;8.18;;;3.40;;
18610;SDS011;9435;52.122;5.502;2022-07-29T11:52:45;7.25;;;2.78;;
18610;SDS011;9435;52.122;5.502;2022-07-29T11:55:14;7.38;;;3.22;;
18610;SDS011;9435;52.122;5.502;2022-07-29T11:57:46;7.30;;;2.90;;
18610;SDS011;9435;52.122;5.502;2022-07-29T12:00:21;8.40;;;3.35;;
18610;SDS011;9435;52.122;5.502;2022-07-29T12:02:50;6.97;;;2.92;;
18610;SDS011;9435;52.122;5.502;2022-07-29T12:05:18;5.82;;;2.40;;
18610;SDS011;9435;52.122;5.502;2022-07-29T12:07:45;5.90;;;3.10;;
18610;SDS011;9435;52.122;5.502;2022-07-29T12:10:13;9.43;;;3.65;;
18610;SDS011;9435;52.122;5.502;2022-07-29T12:12:41;5.72;;;3.33;;
18610;SDS011;9435;52.122;5.502;2022-07-29T12:15:15;6.43;;;3.00;;
18610;SDS011;9435;52.122;5.502;2022-07-29T12:17:47;4.88;;;3.10;;
18610;SDS011;9435;52.122;5.502;2022-07-29T12:20:21;10.27;;;3.05;;
18610;SDS011;9435;52.122;5.502;2022-07-29T12:22:49;8.25;;;3.40;;
18610;SDS011;9435;52.122;5.502;2022-07-29T12:25:19;10.15;;;3.70;;
18610;SDS011;9435;52.122;5.502;2022-07-29T12:27:47;8.50;;;3.53;;
18610;SDS011;9435;52.122;5.502;2022-07-29T12:30:33;8.20;;;3.70;;
18610;SDS011;9435;52.122;5.502;2022-07-29T12:33:11;8.07;;;3.17;;
18610;SDS011;9435;52.122;5.502;2022-07-29T12:35:39;9.43;;;3.90;;
18610;SDS011;9435;52.122;5.502;2022-07-29T12:38:09;12.60;;;4.07;;
18610;SDS011;9435;52.122;5.502;2022-07-29T12:40:36;7.53;;;3.33;;
18610;SDS011;9435;52.122;5.502;2022-07-29T12:43:07;8.80;;;3.60;;
18610;SDS011;9435;52.122;5.502;2022-07-29T12:45:36;5.38;;;2.67;;
18610;SDS011;9435;52.122;5.502;2022-07-29T12:48:04;7.43;;;3.13;;
18610;SDS011;9435;52.122;5.502;2022-07-29T12:50:35;6.13;;;2.72;;
18610;SDS011;9435;52.122;5.502;2022-07-29T12:53:09;8.85;;;3.15;;
18610;SDS011;9435;52.122;5.502;2022-07-29T12:55:39;7.03;;;3.28;;
18610;SDS011;9435;52.122;5.502;2022-07-29T12:58:07;5.50;;;3.30;;
18610;SDS011;9435;52.122;5.502;2022-07-29T13:00:34;9.90;;;3.15;;
18610;SDS011;9435;52.122;5.502;2022-07-29T13:03:01;6.00;;;2.60;;
18610;SDS011;9435;52.122;5.502;2022-07-29T13:05:43;6.63;;;3.03;;
18610;SDS011;9435;52.122;5.502;2022-07-29T13:08:11;3.88;;;2.30;;
18610;SDS011;9435;52.122;5.502;2022-07-29T13:10:39;5.72;;;2.70;;
18610;SDS011;9435;52.122;5.502;2022-07-29T13:13:07;6.35;;;2.53;;
18610;SDS011;9435;52.122;5.502;2022-07-29T13:15:35;7.32;;;2.80;;
18610;SDS011;9435;52.122;5.502;2022-07-29T13:18:03;5.05;;;2.50;;
18610;SDS011;9435;52.122;5.502;2022-07-29T13:20:31;4.22;;;2.60;;
18610;SDS011;9435;52.122;5.502;2022-07-29T13:23:00;6.80;;;2.60;;
18610;SDS011;9435;52.122;5.502;2022-07-29T13:25:27;10.57;;;2.88;;
18610;SDS011;9435;52.122;5.502;2022-07-29T13:27:57;8.43;;;2.58;;
18610;SDS011;9435;52.122;5.502;2022-07-29T13:30:25;4.75;;;2.10;;
18610;SDS011;9435;52.122;5.502;2022-07-29T13:32:52;7.28;;;2.88;;
18610;SDS011;9435;52.122;5.502;2022-07-29T13:35:20;8.00;;;3.03;;
18610;SDS011;9435;52.122;5.502;2022-07-29T13:37:47;8.50;;;2.45;;
18610;SDS011;9435;52.122;5.502;2022-07-29T13:40:15;6.75;;;2.42;;
18610;SDS011;9435;52.122;5.502;2022-07-29T13:42:43;7.63;;;2.75;;
18610;SDS011;9435;52.122;5.502;2022-07-29T13:45:10;10.95;;;3.20;;
18610;SDS011;9435;52.122;5.502;2022-07-29T13:47:37;10.30;;;2.58;;
18610;SDS011;9435;52.122;5.502;2022-07-29T13:50:05;9.45;;;2.50;;
18610;SDS011;9435;52.122;5.502;2022-07-29T13:52:35;6.55;;;2.50;;
18610;SDS011;9435;52.122;5.502;2022-07-29T13:55:03;4.65;;;1.88;;
18610;SDS011;9435;52.122;5.502;2022-07-29T13:57:32;7.47;;;2.13;;
18610;SDS011;9435;52.122;5.502;2022-07-29T14:00:00;4.70;;;2.30;;
18610;SDS011;9435;52.122;5.502;2022-07-29T14:02:27;5.30;;;2.50;;
18610;SDS011;9435;52.122;5.502;2022-07-29T14:04:54;6.38;;;2.55;;
18610;SDS011;9435;52.122;5.502;2022-07-29T14:07:21;3.92;;;2.08;;
18610;SDS011;9435;52.122;5.502;2022-07-29T14:09:49;5.50;;;2.22;;
18610;SDS011;9435;52.122;5.502;2022-07-29T14:12:18;6.53;;;2.15;;
18610;SDS011;9435;52.122;5.502;2022-07-29T14:14:47;4.72;;;2.20;;
18610;SDS011;9435;52.122;5.502;2022-07-29T14:17:14;6.95;;;2.08;;
18610;SDS011;9435;52.122;5.502;2022-07-29T14:19:41;6.00;;;2.25;;
18610;SDS011;9435;52.122;5.502;2022-07-29T14:22:08;6.00;;;2.00;;
18610;SDS011;9435;52.122;5.502;2022-07-29T14:24:36;6.22;;;2.00;;
18610;SDS011;9435;52.122;5.502;2022-07-29T14:27:04;7.95;;;2.22;;
18610;SDS011;9435;52.122;5.502;2022-07-29T14:29:31;5.60;;;2.28;;
18610;SDS011;9435;52.122;5.502;2022-07-29T14:31:59;6.43;;;2.63;;
18610;SDS011;9435;52.122;5.502;2022-07-29T14:34:26;8.02;;;2.40;;
18610;SDS011;9435;52.122;5.502;2022-07-29T14:36:53;3.78;;;2.08;;
18610;SDS011;9435;52.122;5.502;2022-07-29T14:39:20;6.15;;;2.50;;
18610;SDS011;9435;52.122;5.502;2022-07-29T14:41:48;5.43;;;2.10;;
18610;SDS011;9435;52.122;5.502;2022-07-29T14:44:16;7.38;;;2.20;;
18610;SDS011;9435;52.122;5.502;2022-07-29T14:46:43;9.80;;;3.30;;
18610;SDS011;9435;52.122;5.502;2022-07-29T14:49:11;8.95;;;2.60;;
18610;SDS011;9435;52.122;5.502;2022-07-29T14:51:38;4.57;;;2.30;;
18610;SDS011;9435;52.122;5.502;2022-07-29T14:54:05;7.65;;;2.55;;
18610;SDS011;9435;52.122;5.502;2022-07-29T14:56:32;5.07;;;2.13;;
18610;SDS011;9435;52.122;5.502;2022-07-29T14:58:59;4.10;;;2.17;;
18610;SDS011;9435;52.122;5.502;2022-07-29T15:01:28;6.25;;;2.53;;
18610;SDS011;9435;52.122;5.502;2022-07-29T15:03:55;6.95;;;2.35;;
18610;SDS011;9435;52.122;5.502;2022-07-29T15:06:24;8.13;;;3.20;;
18610;SDS011;9435;52.122;5.502;2022-07-29T15:08:51;8.18;;;3.10;;
18610;SDS011;9435;52.122;5.502;2022-07-29T15:11:18;9.73;;;3.10;;
18610;SDS011;9435;52.122;5.502;2022-07-29T15:13:47;6.20;;;2.60;;
18610;SDS011;9435;52.122;5.502;2022-07-29T15:16:14;6.53;;;3.08;;
18610;SDS011;9435;52.122;5.502;2022-07-29T15:18:41;6.97;;;2.80;;
18610;SDS011;9435;52.122;5.502;2022-07-29T15:21:08;5.00;;;2.90;;
18610;SDS011;9435;52.122;5.502;2022-07-29T15:23:36;8.27;;;3.60;;
18610;SDS011;9435;52.122;5.502;2022-07-29T15:26:04;6.05;;;3.40;;
18610;SDS011;9435;52.122;5.502;2022-07-29T15:28:31;6.68;;;2.90;;
18610;SDS011;9435;52.122;5.502;2022-07-29T15:30:58;8.15;;;3.50;;